sensor_id;sensor_type;location;lat;lon;timestamp;P1;durP1;ratioP1;P2;durP2;ratioP2
24337;SDS011;12457;50.832;4.346;2023-05-29T00:00:02;16.40;;;6.95;;
24337;SDS011;12457;50.832;4.346;2023-05-29T00:02:32;11.63;;;6.70;;
24337;SDS011;12457;50.832;4.346;2023-05-29T00:05:01;23.85;;;7.88;;
24337;SDS011;12457;50.832;4.346;2023-05-29T00:07:31;15.45;;;7.13;;
24337;SDS011;12457;50.832;4.346;2023-05-29T00:10:01;15.63;;;7.35;;
24337;SDS011;12457;50.832;4.346;2023-05-29T00:12:27;20.88;;;7.90;;
24337;SDS011;12457;50.832;4.346;2023-05-29T00:14:53;20.20;;;7.63;;
24337;SDS011;12457;50.832;4.346;2023-05-29T00:17:19;23.70;;;7.35;;
24337;SDS011;12457;50.832;4.346;2023-05-29T00:19:46;12.70;;;7.15;;
24337;SDS011;12457;50.832;4.346;2023-05-29T00:22:12;18.92;;;7.40;;
24337;SDS011;12457;50.832;4.346;2023-05-29T00:24:40;16.80;;;8.20;;
24337;SDS011;12457;50.832;4.346;2023-05-29T00:27:06;16.98;;;7.80;;
24337;SDS011;12457;50.832;4.346;2023-05-29T00:29:33;17.95;;;7.53;;
24337;SDS011;12457;50.832;4.346;2023-05-29T00:32:00;22.70;;;8.13;;
24337;SDS011;12457;50.832;4.346;2023-05-29T00:34:26;18.52;;;7.88;;
24337;SDS011;12457;50.832;4.346;2023-05-29T00:36:54;21.30;;;7.68;;
24337;SDS011;12457;50.832;4.346;2023-05-29T00:39:25;16.40;;;8.05;;
24337;SDS011;12457;50.832;4.346;2023-05-29T00:41:51;15.00;;;7.53;;
24337;SDS011;12457;50.832;4.346;2023-05-29T00:44:20;16.10;;;8.23;;
24337;SDS011;12457;50.832;4.346;2023-05-29T00:46:51;19.55;;;7.88;;
24337;SDS011;12457;50.832;4.346;2023-05-29T00:49:19;19.83;;;7.68;;
24337;SDS011;12457;50.832;4.346;2023-05-29T00:51:46;16.80;;;7.50;;
24337;SDS011;12457;50.832;4.346;2023-05-29T00:54:14;18.90;;;8.55;;
24337;SDS011;12457;50.832;4.346;2023-05-29T00:56:46;14.18;;;7.15;;
24337;SDS011;12457;50.832;4.346;2023-05-29T00:59:13;20.60;;;7.68;;
24337;SDS011;12457;50.832;4.346;2023-05-29T01:01:39;19.75;;;7.93;;
24337;SDS011;12457;50.832;4.346;2023-05-29T01:04:07;19.05;;;8.02;;
24337;SDS011;12457;50.832;4.346;2023-05-29T01:06:35;18.98;;;8.25;;
24337;SDS011;12457;50.832;4.346;2023-05-29T01:09:01;15.70;;;8.18;;
24337;SDS011;12457;50.832;4.346;2023-05-29T01:11:36;19.85;;;7.90;;
24337;SDS011;12457;50.832;4.346;2023-05-29T01:14:33;19.05;;;7.25;;
24337;SDS011;12457;50.832;4.346;2023-05-29T01:29:08;18.13;;;7.05;;
24337;SDS011;12457;50.832;4.346;2023-05-29T01:31:37;13.52;;;7.18;;
24337;SDS011;12457;50.832;4.346;2023-05-29T01:34:06;14.27;;;7.38;;
24337;SDS011;12457;50.832;4.346;2023-05-29T01:36:32;15.20;;;7.25;;
24337;SDS011;12457;50.832;4.346;2023-05-29T01:38:58;17.55;;;7.55;;
24337;SDS011;12457;50.832;4.346;2023-05-29T01:41:25;17.90;;;7.63;;
24337;SDS011;12457;50.832;4.346;2023-05-29T01:43:51;15.73;;;7.03;;
24337;SDS011;12457;50.832;4.346;2023-05-29T01:46:18;15.93;;;6.75;;
24337;SDS011;12457;50.832;4.346;2023-05-29T01:48:46;15.68;;;7.57;;
24337;SDS011;12457;50.832;4.346;2023-05-29T01:51:12;26.67;;;8.05;;
24337;SDS011;12457;50.832;4.346;2023-05-29T01:53:40;17.25;;;7.47;;
24337;SDS011;12457;50.832;4.346;2023-05-29T01:56:19;16.48;;;7.63;;
24337;SDS011;12457;50.832;4.346;2023-05-29T01:58:45;16.27;;;7.00;;
24337;SDS011;12457;50.832;4.346;2023-05-29T02:01:11;13.68;;;7.38;;
24337;SDS011;12457;50.832;4.346;2023-05-29T02:03:37;20.67;;;7.85;;
24337;SDS011;12457;50.832;4.346;2023-05-29T02:06:03;16.75;;;7.32;;
24337;SDS011;12457;50.832;4.346;2023-05-29T02:08:29;20.60;;;7.80;;
24337;SDS011;12457;50.832;4.346;2023-05-29T02:10:55;16.80;;;7.35;;
24337;SDS011;12457;50.832;4.346;2023-05-29T02:13:21;18.10;;;7.40;;
24337;SDS011;12457;50.832;4.346;2023-05-29T02:15:47;18.90;;;7.50;;
24337;SDS011;12457;50.832;4.346;2023-05-29T02:18:13;15.05;;;7.25;;
24337;SDS011;12457;50.832;4.346;2023-05-29T02:20:40;19.35;;;7.03;;
24337;SDS011;12457;50.832;4.346;2023-05-29T02:23:09;18.55;;;8.23;;
24337;SDS011;12457;50.832;4.346;2023-05-29T02:25:47;16.48;;;7.45;;
24337;SDS011;12457;50.832;4.346;2023-05-29T02:28:14;16.25;;;7.57;;
24337;SDS011;12457;50.832;4.346;2023-05-29T02:30:40;17.15;;;7.30;;
24337;SDS011;12457;50.832;4.346;2023-05-29T02:33:06;17.25;;;7.32;;
24337;SDS011;12457;50.832;4.346;2023-05-29T02:35:32;15.50;;;6.47;;
24337;SDS011;12457;50.832;4.346;2023-05-29T02:37:57;19.35;;;5.45;;
24337;SDS011;12457;50.832;4.346;2023-05-29T02:40:24;18.00;;;6.80;;
24337;SDS011;12457;50.832;4.346;2023-05-29T02:42:50;20.02;;;6.43;;
24337;SDS011;12457;50.832;4.346;2023-05-29T02:45:16;16.95;;;6.32;;
24337;SDS011;12457;50.832;4.346;2023-05-29T02:47:42;16.38;;;5.72;;
24337;SDS011;12457;50.832;4.346;2023-05-29T02:50:09;13.43;;;5.80;;
24337;SDS011;12457;50.832;4.346;2023-05-29T02:52:35;17.83;;;5.40;;
24337;SDS011;12457;50.832;4.346;2023-05-29T02:55:02;16.73;;;5.25;;
24337;SDS011;12457;50.832;4.346;2023-05-29T02:57:31;14.63;;;5.88;;
24337;SDS011;12457;50.832;4.346;2023-05-29T02:59:57;14.88;;;5.60;;
24337;SDS011;12457;50.832;4.346;2023-05-29T03:02:25;15.98;;;6.32;;
24337;SDS011;12457;50.832;4.346;2023-05-29T03:04:53;15.85;;;4.90;;
24337;SDS011;12457;50.832;4.346;2023-05-29T03:07:20;18.95;;;4.45;;
24337;SDS011;12457;50.832;4.346;2023-05-29T03:09:45;12.55;;;5.43;;
24337;SDS011;12457;50.832;4.346;2023-05-29T03:12:11;15.95;;;4.95;;
24337;SDS011;12457;50.832;4.346;2023-05-29T03:14:37;17.52;;;4.80;;
24337;SDS011;12457;50.832;4.346;2023-05-29T03:17:04;16.67;;;5.32;;
24337;SDS011;12457;50.832;4.346;2023-05-29T03:19:30;18.48;;;4.75;;
24337;SDS011;12457;50.832;4.346;2023-05-29T03:21:56;12.82;;;4.03;;
24337;SDS011;12457;50.832;4.346;2023-05-29T03:24:21;17.42;;;4.80;;
24337;SDS011;12457;50.832;4.346;2023-05-29T03:26:48;22.15;;;4.93;;
24337;SDS011;12457;50.832;4.346;2023-05-29T03:29:15;13.38;;;3.97;;
24337;SDS011;12457;50.832;4.346;2023-05-29T03:31:42;13.15;;;3.95;;
24337;SDS011;12457;50.832;4.346;2023-05-29T03:34:08;17.35;;;4.55;;
24337;SDS011;12457;50.832;4.346;2023-05-29T03:36:33;22.65;;;4.22;;
24337;SDS011;12457;50.832;4.346;2023-05-29T03:39:03;9.23;;;3.67;;
24337;SDS011;12457;50.832;4.346;2023-05-29T03:41:35;15.20;;;4.53;;
24337;SDS011;12457;50.832;4.346;2023-05-29T03:44:01;12.65;;;3.83;;
24337;SDS011;12457;50.832;4.346;2023-05-29T03:46:26;15.75;;;3.70;;
24337;SDS011;12457;50.832;4.346;2023-05-29T03:48:52;15.90;;;3.60;;
24337;SDS011;12457;50.832;4.346;2023-05-29T03:51:19;16.05;;;3.38;;
24337;SDS011;12457;50.832;4.346;2023-05-29T03:53:45;13.23;;;3.58;;
24337;SDS011;12457;50.832;4.346;2023-05-29T03:56:20;13.60;;;3.90;;
24337;SDS011;12457;50.832;4.346;2023-05-29T03:58:46;14.32;;;3.70;;
24337;SDS011;12457;50.832;4.346;2023-05-29T04:01:12;18.40;;;4.28;;
24337;SDS011;12457;50.832;4.346;2023-05-29T04:03:37;11.65;;;3.50;;
24337;SDS011;12457;50.832;4.346;2023-05-29T04:06:04;14.32;;;3.45;;
24337;SDS011;12457;50.832;4.346;2023-05-29T04:08:30;17.88;;;3.60;;
24337;SDS011;12457;50.832;4.346;2023-05-29T04:10:57;17.95;;;3.10;;
24337;SDS011;12457;50.832;4.346;2023-05-29T04:13:23;10.38;;;3.15;;
24337;SDS011;12457;50.832;4.346;2023-05-29T04:15:49;10.68;;;2.85;;
24337;SDS011;12457;50.832;4.346;2023-05-29T04:18:18;14.15;;;3.60;;
24337;SDS011;12457;50.832;4.346;2023-05-29T04:20:44;12.30;;;3.17;;
24337;SDS011;12457;50.832;4.346;2023-05-29T04:23:12;16.40;;;3.40;;
24337;SDS011;12457;50.832;4.346;2023-05-29T04:25:38;20.33;;;3.05;;
24337;SDS011;12457;50.832;4.346;2023-05-29T04:28:09;10.73;;;2.88;;
24337;SDS011;12457;50.832;4.346;2023-05-29T04:30:35;12.98;;;2.75;;
24337;SDS011;12457;50.832;4.346;2023-05-29T04:33:01;16.75;;;3.60;;
24337;SDS011;12457;50.832;4.346;2023-05-29T04:35:28;12.35;;;2.85;;
24337;SDS011;12457;50.832;4.346;2023-05-29T04:37:55;17.38;;;3.13;;
24337;SDS011;12457;50.832;4.346;2023-05-29T04:40:24;11.20;;;2.90;;
24337;SDS011;12457;50.832;4.346;2023-05-29T04:42:50;12.45;;;3.08;;
24337;SDS011;12457;50.832;4.346;2023-05-29T04:45:15;13.48;;;2.67;;
24337;SDS011;12457;50.832;4.346;2023-05-29T04:47:41;10.95;;;2.78;;
24337;SDS011;12457;50.832;4.346;2023-05-29T04:50:11;16.33;;;3.15;;
24337;SDS011;12457;50.832;4.346;2023-05-29T04:52:38;12.52;;;2.60;;
24337;SDS011;12457;50.832;4.346;2023-05-29T04:55:05;8.32;;;2.58;;
24337;SDS011;12457;50.832;4.346;2023-05-29T04:57:31;13.35;;;2.97;;
24337;SDS011;12457;50.832;4.346;2023-05-29T04:59:57;14.65;;;3.38;;
24337;SDS011;12457;50.832;4.346;2023-05-29T05:02:23;12.18;;;2.85;;
24337;SDS011;12457;50.832;4.346;2023-05-29T05:04:48;13.77;;;2.83;;
24337;SDS011;12457;50.832;4.346;2023-05-29T05:07:15;10.10;;;2.75;;
24337;SDS011;12457;50.832;4.346;2023-05-29T05:09:42;12.02;;;2.50;;
24337;SDS011;12457;50.832;4.346;2023-05-29T05:12:08;15.73;;;3.28;;
24337;SDS011;12457;50.832;4.346;2023-05-29T05:14:34;17.27;;;3.42;;
24337;SDS011;12457;50.832;4.346;2023-05-29T05:17:00;9.65;;;2.38;;
24337;SDS011;12457;50.832;4.346;2023-05-29T05:19:27;11.93;;;3.10;;
24337;SDS011;12457;50.832;4.346;2023-05-29T05:21:54;15.23;;;3.17;;
24337;SDS011;12457;50.832;4.346;2023-05-29T05:24:20;11.52;;;2.85;;
24337;SDS011;12457;50.832;4.346;2023-05-29T05:26:46;10.88;;;2.47;;
24337;SDS011;12457;50.832;4.346;2023-05-29T05:29:12;9.07;;;2.83;;
24337;SDS011;12457;50.832;4.346;2023-05-29T05:31:38;8.10;;;2.10;;
24337;SDS011;12457;50.832;4.346;2023-05-29T05:34:04;14.38;;;3.22;;
24337;SDS011;12457;50.832;4.346;2023-05-29T05:36:30;13.27;;;2.38;;
24337;SDS011;12457;50.832;4.346;2023-05-29T05:38:56;14.70;;;2.45;;
24337;SDS011;12457;50.832;4.346;2023-05-29T05:41:21;10.77;;;3.28;;
24337;SDS011;12457;50.832;4.346;2023-05-29T05:43:50;8.63;;;2.78;;
24337;SDS011;12457;50.832;4.346;2023-05-29T05:46:16;18.52;;;3.15;;
24337;SDS011;12457;50.832;4.346;2023-05-29T05:48:42;14.77;;;2.50;;
24337;SDS011;12457;50.832;4.346;2023-05-29T05:51:08;12.60;;;2.95;;
24337;SDS011;12457;50.832;4.346;2023-05-29T05:53:35;12.00;;;2.72;;
24337;SDS011;12457;50.832;4.346;2023-05-29T05:56:02;14.50;;;2.78;;
24337;SDS011;12457;50.832;4.346;2023-05-29T05:58:28;12.82;;;4.03;;
24337;SDS011;12457;50.832;4.346;2023-05-29T06:00:54;17.02;;;2.33;;
24337;SDS011;12457;50.832;4.346;2023-05-29T06:03:20;10.65;;;2.15;;
24337;SDS011;12457;50.832;4.346;2023-05-29T06:05:46;14.95;;;2.70;;
24337;SDS011;12457;50.832;4.346;2023-05-29T06:08:12;13.95;;;3.08;;
24337;SDS011;12457;50.832;4.346;2023-05-29T06:10:38;13.20;;;3.03;;
24337;SDS011;12457;50.832;4.346;2023-05-29T06:13:04;8.88;;;2.40;;
24337;SDS011;12457;50.832;4.346;2023-05-29T06:15:32;11.00;;;2.35;;
24337;SDS011;12457;50.832;4.346;2023-05-29T06:17:57;10.38;;;3.15;;
24337;SDS011;12457;50.832;4.346;2023-05-29T06:20:23;10.70;;;2.45;;
24337;SDS011;12457;50.832;4.346;2023-05-29T06:22:50;11.23;;;2.17;;
24337;SDS011;12457;50.832;4.346;2023-05-29T06:25:16;15.43;;;3.03;;
24337;SDS011;12457;50.832;4.346;2023-05-29T06:27:45;16.92;;;2.53;;
24337;SDS011;12457;50.832;4.346;2023-05-29T06:30:11;17.48;;;2.85;;
24337;SDS011;12457;50.832;4.346;2023-05-29T06:32:38;11.40;;;2.95;;
24337;SDS011;12457;50.832;4.346;2023-05-29T06:35:04;12.43;;;2.90;;
24337;SDS011;12457;50.832;4.346;2023-05-29T06:37:31;15.00;;;3.08;;
24337;SDS011;12457;50.832;4.346;2023-05-29T06:39:57;16.45;;;2.72;;
24337;SDS011;12457;50.832;4.346;2023-05-29T06:42:22;8.90;;;2.35;;
24337;SDS011;12457;50.832;4.346;2023-05-29T06:44:49;8.05;;;2.88;;
24337;SDS011;12457;50.832;4.346;2023-05-29T06:47:15;11.45;;;2.72;;
24337;SDS011;12457;50.832;4.346;2023-05-29T06:49:43;12.00;;;3.10;;
24337;SDS011;12457;50.832;4.346;2023-05-29T06:52:10;12.48;;;3.20;;
24337;SDS011;12457;50.832;4.346;2023-05-29T06:54:36;13.27;;;2.63;;
24337;SDS011;12457;50.832;4.346;2023-05-29T06:57:03;14.27;;;3.70;;
24337;SDS011;12457;50.832;4.346;2023-05-29T06:59:28;9.95;;;2.45;;
24337;SDS011;12457;50.832;4.346;2023-05-29T07:01:54;17.60;;;3.22;;
24337;SDS011;12457;50.832;4.346;2023-05-29T07:04:20;11.50;;;2.60;;
24337;SDS011;12457;50.832;4.346;2023-05-29T07:06:45;11.90;;;2.70;;
24337;SDS011;12457;50.832;4.346;2023-05-29T07:09:11;19.98;;;3.33;;
24337;SDS011;12457;50.832;4.346;2023-05-29T07:11:37;13.55;;;2.40;;
24337;SDS011;12457;50.832;4.346;2023-05-29T07:14:04;13.73;;;2.63;;
24337;SDS011;12457;50.832;4.346;2023-05-29T07:16:29;13.43;;;2.50;;
24337;SDS011;12457;50.832;4.346;2023-05-29T07:18:55;12.32;;;2.60;;
24337;SDS011;12457;50.832;4.346;2023-05-29T07:21:21;10.32;;;2.08;;
24337;SDS011;12457;50.832;4.346;2023-05-29T07:23:46;10.93;;;2.45;;
24337;SDS011;12457;50.832;4.346;2023-05-29T07:26:13;12.13;;;2.75;;
24337;SDS011;12457;50.832;4.346;2023-05-29T07:28:39;6.45;;;1.90;;
24337;SDS011;12457;50.832;4.346;2023-05-29T07:31:05;17.17;;;2.60;;
24337;SDS011;12457;50.832;4.346;2023-05-29T07:33:30;11.80;;;2.30;;
24337;SDS011;12457;50.832;4.346;2023-05-29T07:35:56;15.43;;;2.65;;
24337;SDS011;12457;50.832;4.346;2023-05-29T07:38:21;10.27;;;2.67;;
24337;SDS011;12457;50.832;4.346;2023-05-29T07:40:47;13.88;;;2.25;;
24337;SDS011;12457;50.832;4.346;2023-05-29T07:43:19;14.77;;;3.22;;
24337;SDS011;12457;50.832;4.346;2023-05-29T07:45:45;10.40;;;3.25;;
24337;SDS011;12457;50.832;4.346;2023-05-29T07:48:11;10.25;;;2.33;;
24337;SDS011;12457;50.832;4.346;2023-05-29T07:50:37;10.48;;;2.38;;
24337;SDS011;12457;50.832;4.346;2023-05-29T07:53:03;11.38;;;3.17;;
24337;SDS011;12457;50.832;4.346;2023-05-29T07:55:28;14.90;;;2.60;;
24337;SDS011;12457;50.832;4.346;2023-05-29T07:57:54;11.82;;;2.47;;
24337;SDS011;12457;50.832;4.346;2023-05-29T08:00:21;20.50;;;3.30;;
24337;SDS011;12457;50.832;4.346;2023-05-29T08:02:47;6.38;;;2.30;;
24337;SDS011;12457;50.832;4.346;2023-05-29T08:05:14;11.35;;;2.53;;
24337;SDS011;12457;50.832;4.346;2023-05-29T08:07:40;10.65;;;2.30;;
24337;SDS011;12457;50.832;4.346;2023-05-29T08:10:07;9.93;;;2.63;;
24337;SDS011;12457;50.832;4.346;2023-05-29T08:12:34;12.00;;;2.30;;
24337;SDS011;12457;50.832;4.346;2023-05-29T08:15:04;19.58;;;2.28;;
24337;SDS011;12457;50.832;4.346;2023-05-29T08:17:30;15.00;;;3.05;;
24337;SDS011;12457;50.832;4.346;2023-05-29T08:19:56;11.38;;;2.97;;
24337;SDS011;12457;50.832;4.346;2023-05-29T08:22:27;7.78;;;2.47;;
24337;SDS011;12457;50.832;4.346;2023-05-29T08:24:53;10.02;;;2.90;;
24337;SDS011;12457;50.832;4.346;2023-05-29T08:27:19;12.98;;;2.85;;
24337;SDS011;12457;50.832;4.346;2023-05-29T08:29:46;13.02;;;2.28;;
24337;SDS011;12457;50.832;4.346;2023-05-29T08:32:12;11.88;;;3.03;;
24337;SDS011;12457;50.832;4.346;2023-05-29T08:34:38;16.10;;;2.58;;
24337;SDS011;12457;50.832;4.346;2023-05-29T08:37:04;7.20;;;2.38;;
24337;SDS011;12457;50.832;4.346;2023-05-29T08:39:30;14.15;;;2.55;;
24337;SDS011;12457;50.832;4.346;2023-05-29T08:41:59;13.80;;;2.80;;
24337;SDS011;12457;50.832;4.346;2023-05-29T08:44:58;11.00;;;2.70;;
24337;SDS011;12457;50.832;4.346;2023-05-29T08:47:28;10.23;;;2.70;;
24337;SDS011;12457;50.832;4.346;2023-05-29T08:49:58;17.63;;;3.10;;
24337;SDS011;12457;50.832;4.346;2023-05-29T08:52:27;7.55;;;2.60;;
24337;SDS011;12457;50.832;4.346;2023-05-29T08:54:56;20.42;;;3.08;;
24337;SDS011;12457;50.832;4.346;2023-05-29T08:57:23;12.48;;;2.35;;
24337;SDS011;12457;50.832;4.346;2023-05-29T08:59:51;15.75;;;3.00;;
24337;SDS011;12457;50.832;4.346;2023-05-29T09:02:20;10.45;;;2.40;;
24337;SDS011;12457;50.832;4.346;2023-05-29T09:04:45;17.35;;;3.80;;
24337;SDS011;12457;50.832;4.346;2023-05-29T09:07:14;11.68;;;2.55;;
24337;SDS011;12457;50.832;4.346;2023-05-29T09:09:44;16.25;;;4.55;;
24337;SDS011;12457;50.832;4.346;2023-05-29T09:12:13;10.77;;;2.53;;
24337;SDS011;12457;50.832;4.346;2023-05-29T09:14:44;11.23;;;2.72;;
24337;SDS011;12457;50.832;4.346;2023-05-29T09:17:12;12.98;;;2.50;;
24337;SDS011;12457;50.832;4.346;2023-05-29T09:19:40;12.80;;;2.95;;
24337;SDS011;12457;50.832;4.346;2023-05-29T09:22:11;11.82;;;3.30;;
24337;SDS011;12457;50.832;4.346;2023-05-29T09:24:47;12.15;;;2.58;;
24337;SDS011;12457;50.832;4.346;2023-05-29T09:27:17;16.67;;;3.75;;
24337;SDS011;12457;50.832;4.346;2023-05-29T09:29:44;11.98;;;2.78;;
24337;SDS011;12457;50.832;4.346;2023-05-29T09:32:12;14.40;;;2.58;;
24337;SDS011;12457;50.832;4.346;2023-05-29T09:34:41;16.10;;;3.13;;
24337;SDS011;12457;50.832;4.346;2023-05-29T09:37:10;14.18;;;3.22;;
24337;SDS011;12457;50.832;4.346;2023-05-29T09:39:47;17.20;;;3.67;;
24337;SDS011;12457;50.832;4.346;2023-05-29T09:42:13;21.42;;;3.17;;
24337;SDS011;12457;50.832;4.346;2023-05-29T09:44:41;20.17;;;2.92;;
24337;SDS011;12457;50.832;4.346;2023-05-29T09:47:08;13.35;;;2.97;;
24337;SDS011;12457;50.832;4.346;2023-05-29T09:49:34;13.02;;;3.40;;
24337;SDS011;12457;50.832;4.346;2023-05-29T09:52:03;16.95;;;3.00;;
24337;SDS011;12457;50.832;4.346;2023-05-29T09:54:30;14.48;;;3.45;;
24337;SDS011;12457;50.832;4.346;2023-05-29T09:56:57;19.50;;;2.90;;
24337;SDS011;12457;50.832;4.346;2023-05-29T09:59:26;12.68;;;2.60;;
24337;SDS011;12457;50.832;4.346;2023-05-29T10:02:01;11.27;;;2.83;;
24337;SDS011;12457;50.832;4.346;2023-05-29T10:04:29;11.93;;;3.33;;
24337;SDS011;12457;50.832;4.346;2023-05-29T10:07:03;18.33;;;3.28;;
24337;SDS011;12457;50.832;4.346;2023-05-29T10:09:35;9.60;;;2.90;;
24337;SDS011;12457;50.832;4.346;2023-05-29T10:12:06;8.45;;;2.25;;
24337;SDS011;12457;50.832;4.346;2023-05-29T10:14:36;9.57;;;2.70;;
24337;SDS011;12457;50.832;4.346;2023-05-29T10:17:06;11.68;;;2.67;;
24337;SDS011;12457;50.832;4.346;2023-05-29T10:19:34;16.98;;;3.33;;
24337;SDS011;12457;50.832;4.346;2023-05-29T10:22:03;15.88;;;2.78;;
24337;SDS011;12457;50.832;4.346;2023-05-29T10:24:34;15.80;;;3.38;;
24337;SDS011;12457;50.832;4.346;2023-05-29T10:27:02;14.10;;;2.88;;
24337;SDS011;12457;50.832;4.346;2023-05-29T10:29:37;11.73;;;2.45;;
24337;SDS011;12457;50.832;4.346;2023-05-29T10:35:00;16.63;;;2.95;;
24337;SDS011;12457;50.832;4.346;2023-05-29T10:38:01;14.75;;;3.00;;
24337;SDS011;12457;50.832;4.346;2023-05-29T10:40:38;16.13;;;2.80;;
24337;SDS011;12457;50.832;4.346;2023-05-29T10:43:04;11.20;;;2.72;;
24337;SDS011;12457;50.832;4.346;2023-05-29T10:50:40;7.20;;;2.30;;
24337;SDS011;12457;50.832;4.346;2023-05-29T10:53:07;12.50;;;3.13;;
24337;SDS011;12457;50.832;4.346;2023-05-29T10:55:40;10.98;;;3.03;;
24337;SDS011;12457;50.832;4.346;2023-05-29T10:58:06;8.98;;;2.80;;
24337;SDS011;12457;50.832;4.346;2023-05-29T11:06:45;13.02;;;2.88;;
24337;SDS011;12457;50.832;4.346;2023-05-29T11:09:28;14.48;;;2.97;;
24337;SDS011;12457;50.832;4.346;2023-05-29T11:12:12;10.63;;;2.70;;
24337;SDS011;12457;50.832;4.346;2023-05-29T11:15:04;7.63;;;2.22;;
24337;SDS011;12457;50.832;4.346;2023-05-29T11:23:18;6.57;;;2.30;;
24337;SDS011;12457;50.832;4.346;2023-05-29T11:25:46;9.27;;;2.30;;
24337;SDS011;12457;50.832;4.346;2023-05-29T11:28:14;9.95;;;2.38;;
24337;SDS011;12457;50.832;4.346;2023-05-29T11:30:41;10.07;;;2.20;;
24337;SDS011;12457;50.832;4.346;2023-05-29T11:33:21;13.27;;;2.63;;
24337;SDS011;12457;50.832;4.346;2023-05-29T11:35:57;13.75;;;2.83;;
24337;SDS011;12457;50.832;4.346;2023-05-29T11:38:24;11.38;;;2.40;;
24337;SDS011;12457;50.832;4.346;2023-05-29T11:40:52;10.70;;;2.72;;
24337;SDS011;12457;50.832;4.346;2023-05-29T11:43:21;8.88;;;2.13;;
24337;SDS011;12457;50.832;4.346;2023-05-29T11:45:48;14.35;;;2.63;;
24337;SDS011;12457;50.832;4.346;2023-05-29T11:48:13;11.70;;;2.47;;
24337;SDS011;12457;50.832;4.346;2023-05-29T11:50:39;11.00;;;2.58;;
24337;SDS011;12457;50.832;4.346;2023-05-29T11:53:06;11.75;;;2.00;;
24337;SDS011;12457;50.832;4.346;2023-05-29T11:55:35;14.75;;;3.20;;
24337;SDS011;12457;50.832;4.346;2023-05-29T11:58:01;8.20;;;2.05;;
24337;SDS011;12457;50.832;4.346;2023-05-29T12:00:32;11.55;;;2.75;;
24337;SDS011;12457;50.832;4.346;2023-05-29T12:02:59;8.00;;;2.25;;
24337;SDS011;12457;50.832;4.346;2023-05-29T12:05:32;8.57;;;2.72;;
24337;SDS011;12457;50.832;4.346;2023-05-29T12:08:09;13.82;;;3.20;;
24337;SDS011;12457;50.832;4.346;2023-05-29T12:10:35;12.95;;;3.28;;
24337;SDS011;12457;50.832;4.346;2023-05-29T12:13:00;9.23;;;2.55;;
24337;SDS011;12457;50.832;4.346;2023-05-29T12:15:27;7.22;;;2.70;;
24337;SDS011;12457;50.832;4.346;2023-05-29T12:17:53;10.45;;;2.53;;
24337;SDS011;12457;50.832;4.346;2023-05-29T12:20:24;9.93;;;2.47;;
24337;SDS011;12457;50.832;4.346;2023-05-29T12:22:54;9.68;;;2.85;;
24337;SDS011;12457;50.832;4.346;2023-05-29T12:25:26;13.90;;;3.28;;
24337;SDS011;12457;50.832;4.346;2023-05-29T12:27:52;12.15;;;3.05;;
24337;SDS011;12457;50.832;4.346;2023-05-29T12:30:24;11.15;;;3.10;;
24337;SDS011;12457;50.832;4.346;2023-05-29T12:32:52;6.18;;;2.17;;
24337;SDS011;12457;50.832;4.346;2023-05-29T12:35:22;12.05;;;2.92;;
24337;SDS011;12457;50.832;4.346;2023-05-29T12:37:53;9.77;;;2.97;;
24337;SDS011;12457;50.832;4.346;2023-05-29T12:40:38;7.90;;;2.80;;
24337;SDS011;12457;50.832;4.346;2023-05-29T12:43:07;15.60;;;3.08;;
24337;SDS011;12457;50.832;4.346;2023-05-29T12:45:34;7.35;;;2.22;;
24337;SDS011;12457;50.832;4.346;2023-05-29T12:48:06;10.60;;;2.47;;
24337;SDS011;12457;50.832;4.346;2023-05-29T12:50:38;6.53;;;2.03;;
24337;SDS011;12457;50.832;4.346;2023-05-29T12:53:12;5.72;;;2.28;;
24337;SDS011;12457;50.832;4.346;2023-05-29T12:55:40;8.30;;;2.00;;
24337;SDS011;12457;50.832;4.346;2023-05-29T12:58:07;7.50;;;2.63;;
24337;SDS011;12457;50.832;4.346;2023-05-29T13:00:34;6.63;;;2.47;;
24337;SDS011;12457;50.832;4.346;2023-05-29T13:03:02;12.48;;;3.03;;
24337;SDS011;12457;50.832;4.346;2023-05-29T13:05:28;7.55;;;1.95;;
24337;SDS011;12457;50.832;4.346;2023-05-29T13:07:55;6.47;;;1.90;;
24337;SDS011;12457;50.832;4.346;2023-05-29T13:10:21;8.98;;;2.58;;
24337;SDS011;12457;50.832;4.346;2023-05-29T13:12:48;13.35;;;2.67;;
24337;SDS011;12457;50.832;4.346;2023-05-29T13:15:18;7.25;;;2.13;;
24337;SDS011;12457;50.832;4.346;2023-05-29T13:17:44;14.48;;;2.92;;
24337;SDS011;12457;50.832;4.346;2023-05-29T13:20:12;14.00;;;3.40;;
24337;SDS011;12457;50.832;4.346;2023-05-29T13:22:39;9.65;;;2.60;;
24337;SDS011;12457;50.832;4.346;2023-05-29T13:25:06;11.85;;;2.33;;
24337;SDS011;12457;50.832;4.346;2023-05-29T13:27:35;8.10;;;2.50;;
24337;SDS011;12457;50.832;4.346;2023-05-29T13:30:03;15.48;;;3.10;;
24337;SDS011;12457;50.832;4.346;2023-05-29T13:32:29;4.93;;;2.13;;
24337;SDS011;12457;50.832;4.346;2023-05-29T13:34:55;7.60;;;2.55;;
24337;SDS011;12457;50.832;4.346;2023-05-29T13:37:21;12.38;;;2.45;;
24337;SDS011;12457;50.832;4.346;2023-05-29T13:39:49;10.45;;;2.28;;
24337;SDS011;12457;50.832;4.346;2023-05-29T13:42:15;10.32;;;2.60;;
24337;SDS011;12457;50.832;4.346;2023-05-29T13:44:42;9.57;;;2.70;;
24337;SDS011;12457;50.832;4.346;2023-05-29T13:47:08;11.90;;;3.20;;
24337;SDS011;12457;50.832;4.346;2023-05-29T13:49:34;10.55;;;2.13;;
24337;SDS011;12457;50.832;4.346;2023-05-29T13:52:01;13.10;;;3.00;;
24337;SDS011;12457;50.832;4.346;2023-05-29T13:54:27;5.53;;;2.40;;
24337;SDS011;12457;50.832;4.346;2023-05-29T13:57:03;10.75;;;2.22;;
24337;SDS011;12457;50.832;4.346;2023-05-29T13:59:34;11.18;;;2.55;;
24337;SDS011;12457;50.832;4.346;2023-05-29T14:05:22;6.28;;;2.25;;
24337;SDS011;12457;50.832;4.346;2023-05-29T14:07:48;8.52;;;2.72;;
24337;SDS011;12457;50.832;4.346;2023-05-29T14:10:13;11.25;;;2.80;;
24337;SDS011;12457;50.832;4.346;2023-05-29T14:12:39;9.38;;;2.40;;
24337;SDS011;12457;50.832;4.346;2023-05-29T14:15:07;9.00;;;2.83;;
24337;SDS011;12457;50.832;4.346;2023-05-29T14:17:34;10.82;;;2.10;;
24337;SDS011;12457;50.832;4.346;2023-05-29T14:20:00;7.80;;;2.25;;
24337;SDS011;12457;50.832;4.346;2023-05-29T14:22:29;8.07;;;2.50;;
24337;SDS011;12457;50.832;4.346;2023-05-29T14:24:55;5.55;;;2.47;;
24337;SDS011;12457;50.832;4.346;2023-05-29T14:27:23;10.60;;;2.70;;
24337;SDS011;12457;50.832;4.346;2023-05-29T14:29:48;9.70;;;2.40;;
24337;SDS011;12457;50.832;4.346;2023-05-29T14:32:20;5.20;;;2.35;;
24337;SDS011;12457;50.832;4.346;2023-05-29T14:34:48;9.50;;;2.70;;
24337;SDS011;12457;50.832;4.346;2023-05-29T14:37:14;10.02;;;2.60;;
24337;SDS011;12457;50.832;4.346;2023-05-29T14:39:40;10.18;;;2.40;;
24337;SDS011;12457;50.832;4.346;2023-05-29T14:42:06;9.80;;;2.70;;
24337;SDS011;12457;50.832;4.346;2023-05-29T14:44:32;6.60;;;2.30;;
24337;SDS011;12457;50.832;4.346;2023-05-29T14:46:59;9.95;;;3.25;;
24337;SDS011;12457;50.832;4.346;2023-05-29T14:49:26;7.97;;;2.70;;
24337;SDS011;12457;50.832;4.346;2023-05-29T14:51:56;10.02;;;2.63;;
24337;SDS011;12457;50.832;4.346;2023-05-29T14:54:22;12.65;;;2.63;;
24337;SDS011;12457;50.832;4.346;2023-05-29T14:56:49;9.18;;;2.58;;
24337;SDS011;12457;50.832;4.346;2023-05-29T14:59:15;8.60;;;2.50;;
24337;SDS011;12457;50.832;4.346;2023-05-29T15:01:46;11.25;;;2.60;;
24337;SDS011;12457;50.832;4.346;2023-05-29T15:04:11;10.48;;;2.40;;
24337;SDS011;12457;50.832;4.346;2023-05-29T15:06:37;9.73;;;3.20;;
24337;SDS011;12457;50.832;4.346;2023-05-29T15:09:03;10.65;;;3.00;;
24337;SDS011;12457;50.832;4.346;2023-05-29T15:11:29;6.72;;;2.30;;
24337;SDS011;12457;50.832;4.346;2023-05-29T15:13:56;10.50;;;2.33;;
24337;SDS011;12457;50.832;4.346;2023-05-29T15:16:21;11.95;;;2.55;;